createdAt,value
2023-03-19T00:03:12.035Z,48.20
2023-03-19T00:08:17.580Z,48.38
2023-03-19T00:13:23.558Z,48.50
2023-03-19T00:18:28.932Z,48.56
2023-03-19T00:23:34.944Z,48.80
2023-03-19T00:28:40.745Z,49.14
2023-03-19T00:33:46.439Z,49.35
2023-03-19T00:38:52.329Z,49.41
2023-03-19T00:43:58.662Z,49.64
2023-03-19T00:49:04.171Z,49.95
2023-03-19T00:54:09.761Z,50.09
2023-03-19T00:59:15.454Z,50.25
2023-03-19T01:04:23.459Z,50.45
2023-03-19T01:09:29.260Z,50.81
2023-03-19T01:14:34.989Z,51.25
2023-03-19T01:19:40.869Z,51.56
2023-03-19T01:24:47.049Z,51.53
2023-03-19T01:29:53.247Z,51.97
2023-03-19T01:35:14.267Z,52.05
2023-03-19T01:40:21.157Z,52.26
2023-03-19T01:45:37.207Z,52.55
2023-03-19T01:51:01.505Z,52.51
2023-03-19T01:56:28.653Z,52.58
2023-03-19T02:01:57.294Z,52.69
2023-03-19T02:07:04.191Z,52.71
2023-03-19T02:12:11.917Z,52.80
2023-03-19T02:17:17.672Z,52.89
2023-03-19T02:22:26.765Z,53.25
2023-03-19T02:27:32.879Z,53.37
2023-03-19T02:32:38.267Z,53.71
2023-03-19T02:37:43.967Z,53.84
2023-03-19T02:42:49.462Z,53.89
2023-03-19T02:47:54.896Z,54.08
2023-03-19T02:53:00.687Z,54.35
2023-03-19T02:58:06.243Z,54.57
2023-03-19T03:03:12.422Z,54.85
2023-03-19T03:08:18.614Z,55.05
2023-03-19T03:13:24.239Z,54.99
2023-03-19T03:18:30.037Z,55.18
2023-03-19T03:23:35.514Z,55.22
2023-03-19T03:28:41.220Z,55.44
2023-03-19T03:33:46.827Z,55.70
2023-03-19T03:38:52.934Z,55.92
2023-03-19T03:43:58.541Z,56.05
2023-03-19T03:49:04.491Z,56.33
2023-03-19T03:54:11.061Z,56.38
2023-03-19T03:59:16.963Z,56.32
2023-03-19T04:04:22.618Z,56.56
2023-03-19T04:09:28.182Z,56.74
2023-03-19T04:14:33.778Z,56.90
2023-03-19T04:19:39.414Z,57.01
2023-03-19T04:24:45.317Z,57.20
2023-03-19T04:29:51.207Z,57.40
2023-03-19T04:34:58.554Z,57.74
2023-03-19T04:40:04.742Z,57.91
2023-03-19T04:45:12.698Z,58.43
2023-03-19T04:50:19.096Z,58.50
2023-03-19T04:55:25.156Z,58.76
2023-03-19T05:00:38.182Z,59.12
2023-03-19T05:05:45.258Z,59.43
2023-03-19T05:10:51.347Z,59.45
2023-03-19T05:15:57.477Z,59.50
2023-03-19T05:21:04.837Z,59.49
2023-03-19T05:26:12.208Z,59.74
2023-03-19T05:31:45.450Z,59.03
2023-03-19T05:36:51.857Z,58.78
2023-03-19T05:41:57.821Z,58.50
2023-03-19T05:47:08.801Z,58.35
2023-03-19T05:52:15.643Z,57.91
2023-03-19T05:57:21.952Z,57.39
2023-03-19T06:02:32.480Z,57.02
2023-03-19T06:08:13.454Z,56.02
2023-03-19T06:13:43.342Z,54.95
2023-03-19T06:18:53.284Z,53.52
2023-03-19T06:23:59.112Z,51.26
2023-03-19T06:29:09.592Z,48.28
2023-03-19T06:34:16.211Z,46.13
2023-03-19T06:39:22.907Z,44.70
2023-03-19T06:44:29.089Z,42.01
2023-03-19T06:49:35.206Z,39.04
2023-03-19T06:54:41.199Z,35.36
2023-03-19T06:59:46.794Z,32.19
2023-03-19T07:04:52.466Z,30.57
2023-03-19T07:09:58.313Z,27.54
2023-03-19T07:15:04.862Z,28.02
2023-03-19T07:20:13.559Z,28.07
2023-03-19T07:25:19.500Z,28.18
2023-03-19T07:30:25.518Z,28.55
2023-03-19T07:35:32.157Z,27.40
2023-03-19T07:40:40.053Z,27.36
2023-03-19T07:45:49.308Z,25.59
2023-03-19T07:50:55.392Z,24.75
2023-03-19T07:56:00.853Z,23.93
2023-03-19T08:01:07.406Z,22.90
2023-03-19T08:06:13.231Z,22.85
2023-03-19T08:11:19.043Z,22.46
2023-03-19T08:16:25.709Z,21.09
2023-03-19T08:21:34.416Z,21.19
2023-03-19T08:26:42.227Z,20.43
2023-03-19T08:31:47.795Z,20.84
2023-03-19T08:36:53.247Z,20.95
2023-03-19T08:41:58.729Z,20.67
2023-03-19T08:47:04.897Z,21.49
2023-03-19T08:52:11.111Z,21.95
2023-03-19T08:57:17.224Z,22.03
2023-03-19T09:02:22.745Z,22.22
2023-03-19T09:07:29.025Z,23.74
2023-03-19T09:12:34.959Z,24.14
2023-03-19T09:17:40.382Z,24.65
2023-03-19T09:22:46.125Z,24.39
2023-03-19T09:27:51.890Z,24.83
2023-03-19T09:32:57.315Z,26.27
2023-03-19T09:38:03.125Z,26.21
2023-03-19T09:43:27.878Z,26.24
2023-03-19T09:48:39.313Z,26.01
2023-03-19T09:53:52.754Z,25.74
2023-03-19T09:58:58.625Z,25.40
2023-03-19T10:04:30.858Z,25.81
2023-03-19T10:09:47.986Z,25.25
2023-03-19T10:15:10.118Z,24.74
2023-03-19T10:20:25.483Z,25.60
2023-03-19T10:25:34.034Z,25.84
2023-03-19T10:30:41.615Z,26.33
2023-03-19T10:35:55.602Z,26.35
2023-03-19T10:41:18.988Z,27.24
2023-03-19T10:46:24.765Z,26.41
2023-03-19T10:51:31.315Z,26.78
2023-03-19T10:56:45.978Z,26.66
2023-03-19T11:01:55.680Z,26.22
2023-03-19T11:07:11.840Z,27.13
2023-03-19T11:12:22.968Z,27.77
2023-03-19T11:17:36.859Z,27.10
2023-03-19T11:22:42.913Z,27.16
2023-03-19T11:28:01.293Z,28.08
2023-03-19T11:33:38.376Z,27.25
2023-03-19T11:38:58.661Z,28.20
2023-03-19T11:44:12.977Z,28.58
2023-03-19T11:49:31.701Z,28.56
2023-03-19T11:54:48.664Z,28.19
2023-03-19T12:00:08.125Z,28.07
2023-03-19T12:05:29.257Z,27.84
2023-03-19T12:10:55.579Z,27.89
2023-03-19T12:16:10.291Z,28.14
2023-03-19T12:21:23.679Z,28.14
2023-03-19T12:26:44.080Z,28.07
2023-03-19T12:32:13.717Z,28.18
2023-03-19T12:37:27.204Z,28.39
2023-03-19T12:42:38.941Z,29.07
2023-03-19T12:47:46.587Z,28.65
2023-03-19T12:52:58.146Z,29.03
2023-03-19T12:58:08.440Z,29.63
2023-03-19T13:03:22.419Z,29.63
2023-03-19T13:08:34.197Z,29.35
2023-03-19T13:13:48.585Z,30.53
2023-03-19T13:19:04.418Z,29.97
2023-03-19T13:24:19.281Z,29.90
2023-03-19T13:29:27.018Z,29.75
2023-03-19T13:34:34.812Z,29.52
2023-03-19T13:39:42.203Z,29.80
2023-03-19T13:44:57.118Z,30.10
2023-03-19T13:50:22.441Z,29.83
2023-03-19T13:55:34.344Z,30.05
2023-03-19T14:01:01.944Z,31.26
2023-03-19T14:06:36.592Z,30.73
2023-03-19T14:11:42.381Z,30.65
2023-03-19T14:16:50.737Z,31.14
2023-03-19T14:22:17.160Z,31.00
2023-03-19T14:27:30.678Z,31.76
2023-03-19T14:32:41.939Z,31.57
2023-03-19T14:37:50.327Z,31.49
2023-03-19T14:43:03.092Z,31.84
2023-03-19T14:48:21.229Z,31.81
2023-03-19T14:53:41.484Z,32.32
2023-03-19T14:58:56.123Z,32.55
2023-03-19T15:04:08.960Z,32.74
2023-03-19T15:09:21.000Z,33.40
2023-03-19T15:14:42.481Z,33.48
2023-03-19T15:19:48.400Z,33.48
2023-03-19T15:24:54.518Z,33.74
2023-03-19T15:30:12.836Z,33.62
2023-03-19T15:35:23.093Z,34.26
2023-03-19T15:40:31.434Z,35.08
2023-03-19T15:45:37.639Z,35.12
2023-03-19T15:50:46.681Z,35.14
2023-03-19T15:55:54.246Z,35.21
2023-03-19T16:01:01.166Z,36.06
2023-03-19T16:06:13.272Z,37.13
2023-03-19T16:11:28.609Z,38.03
2023-03-19T16:16:34.990Z,38.43
2023-03-19T16:21:43.227Z,39.37
2023-03-19T16:26:49.694Z,39.42
2023-03-19T16:31:59.369Z,40.24
2023-03-19T16:37:28.771Z,41.52
2023-03-19T16:42:40.512Z,41.80
2023-03-19T16:47:48.624Z,42.05
2023-03-19T16:52:54.147Z,42.74
2023-03-19T16:58:02.078Z,43.45
2023-03-19T17:03:13.195Z,44.30
2023-03-19T17:08:17.475Z,45.16
2023-03-19T17:13:29.564Z,45.59
2023-03-19T17:18:36.675Z,46.74
2023-03-19T17:23:45.262Z,47.16
2023-03-19T17:28:51.522Z,48.00
2023-03-19T17:34:01.020Z,48.90
2023-03-19T17:39:07.695Z,48.82
2023-03-19T17:44:14.703Z,48.81
2023-03-19T17:49:23.602Z,49.89
2023-03-19T17:54:29.425Z,51.16
2023-03-19T17:59:34.870Z,51.10
2023-03-19T18:04:41.130Z,51.07
2023-03-19T18:09:46.726Z,52.36
2023-03-19T18:14:52.283Z,53.11
2023-03-19T18:19:57.948Z,53.89
2023-03-19T18:25:03.801Z,54.09
2023-03-19T18:30:13.402Z,54.03
2023-03-19T18:35:22.226Z,53.57
2023-03-19T18:40:29.425Z,54.80
2023-03-19T18:45:35.668Z,55.00
2023-03-19T18:50:41.926Z,55.49
2023-03-19T18:55:47.830Z,55.93
2023-03-19T19:00:53.471Z,56.22
2023-03-19T19:06:00.135Z,55.93
2023-03-19T19:11:07.786Z,57.95
2023-03-19T19:16:19.061Z,58.63
2023-03-19T19:21:23.361Z,59.53
2023-03-19T19:26:31.025Z,60.19
2023-03-19T19:31:37.290Z,60.35
2023-03-19T19:36:43.583Z,61.58
2023-03-19T19:41:49.197Z,62.01
2023-03-19T19:46:55.893Z,62.16
2023-03-19T19:52:01.572Z,61.99
2023-03-19T19:57:18.431Z,62.69
2023-03-19T20:02:26.210Z,63.35
2023-03-19T20:07:31.668Z,63.83
2023-03-19T20:12:37.131Z,64.64
2023-03-19T20:17:42.643Z,65.68
2023-03-19T20:22:49.712Z,65.59
2023-03-19T20:27:58.306Z,65.79
2023-03-19T20:33:04.682Z,66.23
2023-03-19T20:38:11.746Z,66.68
2023-03-19T20:43:28.219Z,67.41
2023-03-19T20:48:34.554Z,67.86
2023-03-19T20:53:40.022Z,66.96
2023-03-19T20:58:46.546Z,66.93
2023-03-19T21:03:53.461Z,67.47
2023-03-19T21:09:02.038Z,68.07
2023-03-19T21:14:13.623Z,68.23
2023-03-19T21:19:19.058Z,68.81
2023-03-19T21:24:26.012Z,68.82
2023-03-19T21:29:33.478Z,68.82
2023-03-19T21:34:38.891Z,68.85
2023-03-19T21:39:44.872Z,69.46
2023-03-19T21:44:56.938Z,69.65
2023-03-19T21:50:02.465Z,70.49
2023-03-19T21:55:09.558Z,70.44
2023-03-19T22:00:17.986Z,70.29
2023-03-19T22:05:26.541Z,70.82
2023-03-19T22:10:31.987Z,71.48
2023-03-19T22:15:38.387Z,72.07
2023-03-19T22:20:44.746Z,73.13
2023-03-19T22:25:52.892Z,73.78
2023-03-19T22:30:58.838Z,74.43
2023-03-19T22:36:04.462Z,74.15
2023-03-19T22:41:15.959Z,74.09
2023-03-19T22:46:22.779Z,71.89
2023-03-19T22:51:28.828Z,71.60
2023-03-19T22:56:34.461Z,70.37
2023-03-19T23:01:43.447Z,70.89
2023-03-19T23:06:49.578Z,71.93
2023-03-19T23:11:55.246Z,71.75
2023-03-19T23:17:06.786Z,71.78
2023-03-19T23:22:16.808Z,71.05
2023-03-19T23:27:26.209Z,70.98
2023-03-19T23:32:31.846Z,70.54
2023-03-19T23:37:37.973Z,69.54
2023-03-19T23:42:49.952Z,70.15
2023-03-19T23:47:57.965Z,70.02
2023-03-19T23:53:03.467Z,70.31
2023-03-19T23:58:09.412Z,70.64
